Time;durP1;ratioP1;P1;durP2;ratioP2;P2;SDS_P1;SDS_P2;PMS_P1;PMS_P2;Temp;Humidity;BMP_temperature;BMP_pressure;BME280_temperature;BME280_humidity;BME280_pressure;Samples;Min_cycle;Max_cycle;Signal;HPM_P1;HPM_P2
2023/06/24 00:00:56;;;;;;;5.60;4.88;;;16.40;99.90;16.50;101253.00;;;;4959557;28;88735;-63
2023/06/24 00:03:22;;;;;;;4.43;3.47;;;16.40;99.90;16.50;101246.00;;;;4968583;28;108276;-63
2023/06/24 00:05:49;;;;;;;6.43;3.63;;;16.50;99.90;16.50;101243.00;;;;4961887;28;117544;-63
2023/06/24 00:08:19;;;;;;;5.30;4.50;;;16.40;99.90;16.50;101241.00;;;;4966949;28;87733;-63
2023/06/24 00:10:46;;;;;;;8.63;4.13;;;16.40;99.90;16.50;101245.00;;;;4969117;28;87850;-62
2023/06/24 00:13:14;;;;;;;4.53;3.92;;;16.40;99.90;16.60;101244.00;;;;4968639;28;87818;-63
2023/06/24 00:15:42;;;;;;;5.68;3.97;;;16.50;99.90;16.60;101245.00;;;;4971330;28;88672;-63
2023/06/24 00:18:12;;;;;;;6.25;3.67;;;16.50;99.90;16.60;101242.00;;;;4969847;28;87546;-63
2023/06/24 00:20:38;;;;;;;5.78;3.80;;;16.50;99.90;16.60;101244.00;;;;4969400;28;109115;-63
2023/06/24 00:23:05;;;;;;;4.38;3.70;;;16.50;99.90;16.60;101240.00;;;;4971888;28;115777;-63
2023/06/24 00:25:31;;;;;;;5.95;3.67;;;16.50;99.90;16.60;101229.00;;;;4967439;28;115780;-62
2023/06/24 00:27:56;;;;;;;5.10;4.45;;;16.50;99.90;16.60;101231.00;;;;4967465;28;109440;-63
2023/06/24 00:30:23;;;;;;;6.55;3.38;;;16.50;99.90;16.60;101242.00;;;;4970027;28;109116;-63
2023/06/24 00:32:48;;;;;;;5.60;4.45;;;16.50;99.90;16.60;101239.00;;;;4964171;28;88865;-63
2023/06/24 00:35:15;;;;;;;8.93;5.07;;;16.50;99.90;16.60;101234.00;;;;4969709;28;117419;-64
2023/06/24 00:37:42;;;;;;;3.53;3.22;;;16.50;99.90;16.60;101235.00;;;;4966865;28;87744;-62
2023/06/24 00:40:14;;;;;;;5.03;3.85;;;16.50;99.90;16.60;101235.00;;;;4969403;28;87769;-62
2023/06/24 00:42:43;;;;;;;6.20;4.10;;;16.50;99.90;16.60;101234.00;;;;4971937;28;88697;-62
2023/06/24 00:45:10;;;;;;;5.65;4.40;;;16.50;99.90;16.60;101230.00;;;;4965668;28;93139;-62
2023/06/24 00:47:35;;;;;;;5.53;4.18;;;16.50;99.90;16.60;101236.00;;;;4969997;28;87210;-62
2023/06/24 00:50:01;;;;;;;5.70;4.88;;;16.50;99.90;16.60;101239.00;;;;4957143;28;88430;-61
2023/06/24 00:52:27;;;;;;;4.90;3.60;;;16.50;99.90;16.60;101229.00;;;;4969355;28;99877;-63
2023/06/24 00:54:53;;;;;;;5.03;4.22;;;16.50;99.90;16.60;101227.00;;;;4966607;28;116491;-63
2023/06/24 00:57:24;;;;;;;5.93;4.10;;;17.00;99.90;16.60;101224.00;;;;4946502;28;102664;-63
2023/06/24 00:59:53;;;;;;;5.20;4.32;;;16.50;99.90;16.60;101227.00;;;;4965486;28;87856;-62
2023/06/24 01:02:20;;;;;;;5.63;3.97;;;16.50;99.90;16.60;101221.00;;;;4972709;28;89105;-62
2023/06/24 01:04:48;;;;;;;12.27;4.55;;;16.50;99.90;16.60;101216.00;;;;4955974;28;88745;-62
2023/06/24 01:07:15;;;;;;;7.68;4.40;;;16.50;99.90;16.60;101221.00;;;;4957488;28;88110;-63
2023/06/24 01:09:44;;;;;;;5.68;4.35;;;16.50;99.90;16.60;101229.00;;;;4951501;28;88094;-62
2023/06/24 01:12:10;;;;;;;5.18;4.32;;;16.50;99.90;16.60;101227.00;;;;4951065;28;115650;-62
2023/06/24 01:14:36;;;;;;;7.35;4.63;;;16.50;99.90;16.70;101213.00;;;;4950786;28;107547;-62
2023/06/24 01:17:18;;;;;;;5.20;4.57;;;16.60;99.90;16.60;101213.00;;;;4938761;28;88141;-62
2023/06/24 01:20:07;;;;;;;5.00;4.32;;;16.60;99.90;16.60;101210.00;;;;4947818;28;100953;-62
2023/06/24 01:23:06;;;;;;;5.95;4.50;;;16.70;99.90;16.60;101205.00;;;;4951998;28;88054;-61
2023/06/24 01:25:59;;;;;;;5.05;4.53;;;16.60;99.90;16.60;101218.00;;;;4935533;28;87962;-61
2023/06/24 01:28:42;;;;;;;6.10;4.68;;;16.60;99.90;16.70;101210.00;;;;4932291;28;88044;-61
2023/06/24 01:31:34;;;;;;;7.28;5.57;;;16.60;99.90;16.70;101207.00;;;;4934353;28;88086;-61
2023/06/24 01:34:33;;;;;;;5.70;4.57;;;16.60;99.90;16.70;101226.00;;;;4934879;28;88005;-60
2023/06/24 01:37:23;;;;;;;7.25;6.32;;;16.60;99.90;16.70;101226.00;;;;4946560;28;110071;-61
2023/06/24 01:40:09;;;;;;;10.93;7.88;;;16.60;99.90;16.70;101221.00;;;;4947385;28;87033;-60
2023/06/24 01:42:40;;;;;;;6.97;6.30;;;16.60;99.90;16.70;101224.00;;;;4952951;28;87756;-62
2023/06/24 01:45:14;;;;;;;6.22;5.60;;;16.60;99.90;16.70;101223.00;;;;4924831;28;88508;-61
2023/06/24 01:47:46;;;;;;;7.93;5.30;;;16.60;99.90;16.70;101218.00;;;;4935970;28;89696;-61
2023/06/24 01:50:13;;;;;;;8.27;5.72;;;16.60;99.90;16.80;101220.00;;;;4950845;28;90750;-60
2023/06/24 01:52:43;;;;;;;6.30;5.45;;;16.60;99.90;16.70;101222.00;;;;4936293;28;88153;-61
2023/06/24 01:55:17;;;;;;;8.55;5.80;;;16.40;99.90;16.70;101231.00;;;;4933525;28;108660;-61
2023/06/24 01:57:44;;;;;;;10.60;6.80;;;16.70;99.90;16.70;101229.00;;;;4935343;28;88006;-60
2023/06/24 02:00:11;;;;;;;4.93;4.45;;;16.70;99.90;16.80;101221.00;;;;4935817;28;87872;-61
2023/06/24 02:02:39;;;;;;;5.78;5.13;;;16.70;99.90;16.80;101229.00;;;;4933632;28;88443;-61
2023/06/24 02:05:05;;;;;;;6.00;5.32;;;16.70;99.90;16.80;101227.00;;;;4952860;28;105255;-61
2023/06/24 02:07:33;;;;;;;6.43;4.25;;;16.70;99.90;16.80;101219.00;;;;4957430;28;108132;-61
2023/06/24 02:10:00;;;;;;;8.18;5.22;;;16.70;99.90;16.90;101226.00;;;;4976749;27;110074;-61
2023/06/24 02:12:27;;;;;;;5.10;4.05;;;16.80;99.90;16.90;101230.00;;;;4990578;27;89102;-61
2023/06/24 02:14:55;;;;;;;8.82;5.15;;;16.80;99.90;16.90;101219.00;;;;4992810;27;117197;-61
2023/06/24 02:17:24;;;;;;;13.05;5.65;;;16.80;99.90;16.90;101234.00;;;;4986154;28;93091;-61
2023/06/24 02:19:51;;;;;;;7.85;5.53;;;16.80;99.90;17.00;101237.00;;;;4990631;27;88034;-61
2023/06/24 02:22:18;;;;;;;7.22;5.10;;;16.90;99.90;17.00;101235.00;;;;4978493;28;87810;-61
2023/06/24 02:24:44;;;;;;;8.80;5.90;;;16.90;99.90;17.00;101234.00;;;;4989373;27;112966;-61
2023/06/24 02:27:12;;;;;;;6.22;5.20;;;16.90;99.90;17.00;101233.00;;;;4974849;28;116398;-61
2023/06/24 02:29:39;;;;;;;7.78;5.32;;;16.90;99.90;17.10;101238.00;;;;4977427;28;87319;-61
2023/06/24 02:32:06;;;;;;;7.43;5.63;;;17.00;99.90;17.10;101235.00;;;;4976787;28;97445;-62
2023/06/24 02:34:32;;;;;;;10.68;6.78;;;17.00;99.90;17.10;101237.00;;;;4972993;28;109555;-61
2023/06/24 02:36:57;;;;;;;6.43;4.68;;;17.00;99.90;17.10;101230.00;;;;4991889;27;118577;-61
2023/06/24 02:39:23;;;;;;;8.13;6.32;;;17.00;99.90;17.10;101225.00;;;;4970422;28;110447;-61
2023/06/24 02:41:49;;;;;;;6.80;5.50;;;17.00;99.90;17.10;101229.00;;;;4992572;27;108898;-61
2023/06/24 02:44:16;;;;;;;9.00;6.70;;;17.10;99.90;17.20;101229.00;;;;4993429;27;89338;-61
2023/06/24 02:46:44;;;;;;;9.63;5.90;;;17.10;99.90;17.20;101225.00;;;;4988497;28;90112;-62
2023/06/24 02:49:13;;;;;;;8.00;5.30;;;17.10;99.90;17.20;101229.00;;;;4981132;28;87730;-62
2023/06/24 02:51:39;;;;;;;9.50;6.10;;;17.10;99.90;17.20;101237.00;;;;4994477;28;97626;-61
2023/06/24 02:54:06;;;;;;;9.98;6.93;;;17.10;99.90;17.20;101236.00;;;;4975593;28;103880;-61
2023/06/24 02:56:33;;;;;;;9.55;6.85;;;17.10;99.90;17.30;101242.00;;;;4976352;28;116692;-60
2023/06/24 02:58:59;;;;;;;9.48;6.00;;;17.20;99.90;17.30;101236.00;;;;4973760;28;88167;-61
2023/06/24 03:01:27;;;;;;;8.43;6.82;;;17.20;99.90;17.30;101233.00;;;;4988608;27;109812;-61
2023/06/24 03:03:56;;;;;;;8.07;6.55;;;17.20;99.90;17.30;101234.00;;;;4970546;27;89198;-61
2023/06/24 03:06:23;;;;;;;12.70;7.95;;;17.50;99.90;17.30;101237.00;;;;4976026;28;117492;-61
2023/06/24 03:08:50;;;;;;;11.65;6.97;;;17.20;99.90;17.30;101237.00;;;;4968305;28;87771;-62
2023/06/24 03:11:16;;;;;;;10.88;8.57;;;17.20;99.90;17.40;101236.00;;;;4988405;27;87946;-62
2023/06/24 03:13:43;;;;;;;10.00;6.97;;;17.30;99.90;17.40;101234.00;;;;4992702;27;89064;-62
2023/06/24 03:16:12;;;;;;;12.18;7.60;;;17.30;99.90;17.40;101230.00;;;;4987153;27;99151;-60
2023/06/24 03:18:40;;;;;;;8.50;7.53;;;17.30;99.90;17.40;101238.00;;;;4975606;27;87262;-62
2023/06/24 03:21:06;;;;;;;11.50;6.90;;;17.30;99.90;17.40;101238.00;;;;4993960;27;94223;-62
2023/06/24 03:23:31;;;;;;;9.77;7.80;;;17.30;99.90;17.40;101237.00;;;;4989400;27;117143;-62
2023/06/24 03:25:57;;;;;;;10.55;8.32;;;17.30;99.90;17.40;101248.00;;;;4991706;27;118312;-62
2023/06/24 03:28:23;;;;;;;11.77;8.68;;;17.30;99.90;17.40;101253.00;;;;5000873;27;110371;-62
2023/06/24 03:30:49;;;;;;;10.23;7.50;;;17.30;99.90;17.40;101256.00;;;;4985290;27;108539;-62
2023/06/24 03:33:16;;;;;;;11.18;7.28;;;17.30;99.90;17.40;101254.00;;;;4989955;27;89057;-62
2023/06/24 03:35:43;;;;;;;12.27;8.02;;;17.30;99.90;17.40;101253.00;;;;4984646;27;88821;-62
2023/06/24 03:38:09;;;;;;;10.73;7.57;;;17.30;99.90;17.40;101254.00;;;;4990681;27;87910;-62
2023/06/24 03:40:34;;;;;;;9.60;8.02;;;17.30;99.90;17.30;101252.00;;;;4987820;27;98986;-62
2023/06/24 03:43:00;;;;;;;8.63;7.72;;;17.30;99.90;17.30;101264.00;;;;4992147;27;116931;-61
2023/06/24 03:45:26;;;;;;;12.65;8.77;;;17.20;99.90;17.30;101258.00;;;;4988740;28;116994;-61
2023/06/24 03:47:51;;;;;;;11.52;8.63;;;17.20;99.90;17.30;101263.00;;;;4989961;27;110552;-60
2023/06/24 03:50:17;;;;;;;8.88;7.63;;;17.30;99.90;17.30;101262.00;;;;4988145;27;109338;-60
2023/06/24 03:52:44;;;;;;;7.68;6.97;;;17.30;99.90;17.30;101261.00;;;;4986827;27;118602;-61
2023/06/24 03:55:10;;;;;;;12.05;7.75;;;17.30;99.90;17.40;101268.00;;;;4988451;27;87876;-61
2023/06/24 03:57:37;;;;;;;7.30;6.30;;;17.30;99.90;17.40;101270.00;;;;4989978;28;87846;-61
2023/06/24 04:00:21;;;;;;;13.48;8.00;;;17.30;99.90;17.40;101271.00;;;;4987908;27;92921;-62
2023/06/24 04:02:47;;;;;;;10.43;7.82;;;17.30;99.90;17.40;101270.00;;;;4991539;27;87766;-62
2023/06/24 04:05:13;;;;;;;9.65;7.82;;;17.30;99.90;17.40;101274.00;;;;4996458;27;88979;-60
2023/06/24 04:07:39;;;;;;;11.32;7.10;;;17.30;99.90;17.40;101272.00;;;;4991747;27;90745;-62
2023/06/24 04:10:08;;;;;;;13.18;8.13;;;17.30;99.90;17.50;101274.00;;;;4992526;27;87878;-62
2023/06/24 04:12:37;;;;;;;11.93;7.55;;;17.40;99.90;17.50;101272.00;;;;4992327;27;88724;-62
2023/06/24 04:15:04;;;;;;;10.57;8.15;;;17.40;99.90;17.50;101276.00;;;;4988727;27;117136;-62
2023/06/24 04:17:30;;;;;;;10.00;7.55;;;17.40;99.90;17.50;101288.00;;;;4991869;27;87824;-63
2023/06/24 04:19:56;;;;;;;11.73;8.55;;;17.40;99.90;17.60;101294.00;;;;4993234;27;87745;-63
2023/06/24 04:22:22;;;;;;;11.65;8.75;;;17.40;99.90;17.60;101293.00;;;;4993792;27;88511;-63
2023/06/24 04:24:48;;;;;;;11.55;7.57;;;17.50;99.90;17.60;101293.00;;;;4995282;27;118754;-63
2023/06/24 04:27:14;;;;;;;12.25;8.38;;;17.50;99.90;17.60;101297.00;;;;4995466;27;109598;-64
2023/06/24 04:29:39;;;;;;;17.17;8.77;;;17.60;99.90;17.70;101294.00;;;;4994002;27;103337;-63
2023/06/24 04:32:05;;;;;;;8.45;6.45;;;17.60;99.90;17.70;101289.00;;;;4993389;27;116829;-65
2023/06/24 04:34:32;;;;;;;12.18;8.18;;;17.60;99.90;17.70;101285.00;;;;4994570;27;106098;-64
2023/06/24 04:36:58;;;;;;;10.70;7.47;;;17.60;99.90;17.70;101285.00;;;;4996811;27;88471;-65
2023/06/24 04:39:23;;;;;;;9.95;7.32;;;17.60;99.90;17.80;101285.00;;;;4986747;27;109187;-64
2023/06/24 04:41:55;;;;;;;9.50;8.02;;;17.70;99.90;17.80;101296.00;;;;4990964;27;116779;-65
2023/06/24 04:44:21;;;;;;;11.25;8.70;;;17.70;99.90;17.90;101301.00;;;;4991318;27;117366;-64
2023/06/24 04:46:46;;;;;;;11.82;8.02;;;17.80;99.90;17.90;101299.00;;;;4994045;27;87699;-65
2023/06/24 04:49:12;;;;;;;8.48;7.28;;;17.80;99.90;18.00;101291.00;;;;4991962;27;88744;-66
2023/06/24 04:51:40;;;;;;;12.48;7.82;;;17.90;99.90;18.10;101299.00;;;;4988783;27;97559;-65
2023/06/24 04:54:07;;;;;;;14.65;8.88;;;17.90;99.90;18.20;101305.00;;;;4971737;28;88372;-64
2023/06/24 04:56:34;;;;;;;9.18;7.75;;;18.00;99.90;18.30;101302.00;;;;4990314;27;87155;-62
2023/06/24 04:59:00;;;;;;;10.55;7.43;;;18.20;99.90;18.40;101310.00;;;;4988216;28;89477;-63
2023/06/24 05:01:26;;;;;;;8.30;7.10;;;18.30;99.90;18.40;101307.00;;;;4986207;27;101557;-63
2023/06/24 05:03:52;;;;;;;9.07;7.07;;;18.30;99.90;18.50;101305.00;;;;4983680;27;116413;-62
2023/06/24 05:06:17;;;;;;;13.38;7.97;;;18.40;99.90;18.50;101309.00;;;;4985240;27;111082;-62
2023/06/24 05:08:44;;;;;;;16.52;8.38;;;18.40;99.90;18.50;101314.00;;;;4988325;27;87863;-63
2023/06/24 05:11:10;;;;;;;8.15;7.20;;;18.40;99.90;18.60;101313.00;;;;4986044;27;118309;-65
2023/06/24 05:13:36;;;;;;;19.08;8.45;;;18.50;99.90;18.70;101318.00;;;;4984071;27;117354;-64
2023/06/24 05:16:02;;;;;;;11.65;7.80;;;18.60;99.90;18.70;101312.00;;;;4986794;27;100698;-63
2023/06/24 05:18:28;;;;;;;9.35;7.18;;;18.60;99.90;18.70;101318.00;;;;4985141;27;109739;-63
2023/06/24 05:20:53;;;;;;;6.75;6.13;;;18.60;99.90;18.70;101319.00;;;;4984415;27;117973;-64
2023/06/24 05:23:19;;;;;;;9.52;7.13;;;18.70;99.90;18.70;101313.00;;;;4988003;27;118838;-64
2023/06/24 05:25:45;;;;;;;8.35;6.15;;;18.70;99.90;18.80;101326.00;;;;4988275;27;93795;-64
2023/06/24 05:28:10;;;;;;;9.07;6.95;;;18.70;99.90;18.90;101325.00;;;;4989277;27;99519;-64
2023/06/24 05:30:36;;;;;;;9.95;7.32;;;18.80;99.90;19.00;101320.00;;;;4988187;27;116898;-65
2023/06/24 05:33:02;;;;;;;9.20;7.13;;;18.90;99.90;19.10;101321.00;;;;4989333;27;88805;-65
2023/06/24 05:35:28;;;;;;;9.20;7.15;;;19.00;99.90;19.10;101325.00;;;;4985414;28;110328;-64
2023/06/24 05:37:53;;;;;;;8.38;6.85;;;19.00;99.90;19.20;101317.00;;;;4987888;27;88155;-64
2023/06/24 05:40:19;;;;;;;11.30;7.43;;;19.10;99.90;19.20;101335.00;;;;4986296;27;117356;-65
2023/06/24 05:42:45;;;;;;;8.55;6.72;;;19.10;99.90;19.20;101331.00;;;;4988068;27;117547;-64
2023/06/24 05:45:10;;;;;;;16.13;8.23;;;19.10;99.90;19.30;101334.00;;;;4988638;27;88659;-65
2023/06/24 05:47:38;;;;;;;9.55;7.30;;;19.20;99.90;19.30;101333.00;;;;4989820;28;108602;-65
2023/06/24 05:50:04;;;;;;;8.02;6.35;;;19.20;99.90;19.40;101336.00;;;;4986670;27;88323;-65
2023/06/24 05:52:30;;;;;;;8.57;7.45;;;19.30;99.90;19.50;101338.00;;;;4986933;27;90806;-65
2023/06/24 05:54:56;;;;;;;9.05;6.70;;;19.30;99.90;19.60;101342.00;;;;4985079;27;111419;-65
2023/06/24 05:57:21;;;;;;;9.35;8.27;;;19.40;99.90;19.60;101344.00;;;;4985331;27;108663;-66
2023/06/24 05:59:47;;;;;;;6.93;5.25;;;19.50;99.90;19.60;101341.00;;;;4983677;27;116310;-65
2023/06/24 06:02:13;;;;;;;10.02;6.65;;;19.50;99.90;19.70;101341.00;;;;4987513;27;115828;-65
2023/06/24 06:04:39;;;;;;;8.88;6.20;;;19.60;99.90;19.80;101340.00;;;;4985835;27;111883;-65
2023/06/24 06:07:05;;;;;;;7.97;5.57;;;19.70;99.90;20.00;101330.00;;;;4986964;27;110089;-65
2023/06/24 06:09:31;;;;;;;8.50;6.43;;;19.80;99.90;20.00;101336.00;;;;4985219;27;87957;-65
2023/06/24 06:11:56;;;;;;;8.73;5.32;;;19.90;99.90;20.10;101335.00;;;;4985868;27;117037;-66
2023/06/24 06:14:22;;;;;;;9.20;5.00;;;20.00;99.90;20.10;101337.00;;;;4987106;27;110103;-67
2023/06/24 06:16:47;;;;;;;8.88;6.00;;;20.00;99.90;20.10;101332.00;;;;4985051;27;88724;-67
2023/06/24 06:19:36;;;;;;;7.68;6.07;;;20.00;99.90;20.00;101346.00;;;;4986800;27;116567;-67
2023/06/24 06:22:02;;;;;;;9.80;6.40;;;20.00;99.90;20.00;101349.00;;;;4989326;27;87880;-67
2023/06/24 06:24:27;;;;;;;7.10;6.35;;;19.90;99.90;20.00;101343.00;;;;4987833;27;107550;-67
2023/06/24 06:26:53;;;;;;;6.88;5.95;;;19.90;99.90;20.00;101344.00;;;;4983852;27;107092;-67
2023/06/24 06:29:18;;;;;;;7.32;4.88;;;19.90;99.90;19.90;101349.00;;;;4983792;27;117105;-67
2023/06/24 06:31:55;;;;;;;7.57;5.57;;;19.80;99.90;19.90;101345.00;;;;4982868;27;116323;-65
2023/06/24 06:34:20;;;;;;;7.68;5.47;;;19.80;99.90;19.90;101348.00;;;;4985413;27;87088;-66
2023/06/24 06:36:46;;;;;;;9.60;7.13;;;19.80;99.90;19.80;101347.00;;;;4986001;27;109061;-65
2023/06/24 06:39:11;;;;;;;11.00;6.47;;;19.70;99.90;19.80;101360.00;;;;4981878;27;118667;-65
2023/06/24 06:41:37;;;;;;;11.23;6.22;;;19.70;99.90;19.70;101347.00;;;;4987348;27;117362;-65
2023/06/24 06:44:03;;;;;;;7.07;5.85;;;19.60;99.90;19.70;101350.00;;;;4984386;27;110638;-65
2023/06/24 06:46:29;;;;;;;11.27;6.22;;;19.50;99.90;19.60;101360.00;;;;4985845;27;88131;-65
2023/06/24 06:48:54;;;;;;;7.05;5.38;;;19.50;99.90;19.60;101358.00;;;;4983748;27;118601;-66
2023/06/24 06:51:20;;;;;;;7.18;5.82;;;19.50;99.90;19.50;101359.00;;;;4983957;27;88691;-67
2023/06/24 06:53:46;;;;;;;10.15;5.88;;;19.40;99.90;19.50;101350.00;;;;4986761;27;87908;-66
2023/06/24 06:56:20;;;;;;;8.23;5.82;;;19.40;99.90;19.50;101350.00;;;;4984507;27;109021;-66
2023/06/24 06:58:46;;;;;;;8.38;7.18;;;19.40;99.90;19.60;101350.00;;;;4970224;27;110842;-65
2023/06/24 07:01:12;;;;;;;8.40;6.00;;;19.40;99.90;19.70;101367.00;;;;4984433;27;103182;-65
2023/06/24 07:03:37;;;;;;;10.52;6.05;;;19.50;99.90;19.80;101363.00;;;;4981436;27;111304;-65
2023/06/24 07:06:03;;;;;;;7.70;6.90;;;19.60;99.90;19.90;101356.00;;;;4982134;27;110478;-65
2023/06/24 07:08:29;;;;;;;12.68;7.72;;;19.60;99.90;19.90;101358.00;;;;4987108;27;117620;-65
2023/06/24 07:10:54;;;;;;;10.98;7.20;;;19.70;99.90;19.90;101362.00;;;;4987355;27;118019;-64
2023/06/24 07:13:20;;;;;;;13.38;7.88;;;19.80;99.90;20.00;101355.00;;;;4986443;27;87847;-66
2023/06/24 07:15:46;;;;;;;13.43;7.35;;;19.80;99.90;20.00;101363.00;;;;4984391;27;93703;-65
2023/06/24 07:18:11;;;;;;;8.73;6.75;;;19.90;99.90;20.10;101361.00;;;;4986094;27;116416;-67
2023/06/24 07:20:37;;;;;;;11.07;6.10;;;19.90;99.90;20.20;101357.00;;;;4988449;27;119371;-67
2023/06/24 07:23:04;;;;;;;7.20;6.10;;;20.00;99.90;20.20;101364.00;;;;4986853;27;110514;-66
2023/06/24 07:25:30;;;;;;;9.00;6.82;;;20.10;99.90;20.20;101357.00;;;;4989214;28;88715;-65
2023/06/24 07:27:56;;;;;;;12.25;7.10;;;20.10;99.90;20.30;101367.00;;;;4988142;27;87744;-66
2023/06/24 07:30:22;;;;;;;9.32;7.53;;;20.10;99.90;20.50;101364.00;;;;4986743;27;117700;-67
2023/06/24 07:32:47;;;;;;;9.35;5.95;;;20.20;99.90;20.60;101378.00;;;;4988089;27;96778;-65
2023/06/24 07:35:15;;;;;;;9.82;6.20;;;20.40;99.90;20.70;101376.00;;;;4984115;27;109540;-65
2023/06/24 07:37:41;;;;;;;9.38;7.28;;;20.50;99.90;20.90;101374.00;;;;4982433;27;89279;-65
2023/06/24 07:40:07;;;;;;;8.48;6.15;;;20.60;99.90;21.10;101369.00;;;;4987793;27;117909;-65
2023/06/24 07:42:34;;;;;;;8.52;5.68;;;20.80;99.90;21.30;101374.00;;;;4990949;27;87719;-65
2023/06/24 07:44:59;;;;;;;8.95;6.22;;;21.00;99.90;21.50;101375.00;;;;4989356;27;97594;-66
2023/06/24 07:47:25;;;;;;;7.78;5.50;;;21.20;99.90;21.70;101365.00;;;;4990790;27;117042;-65
2023/06/24 07:49:51;;;;;;;6.72;5.50;;;21.50;99.90;21.90;101380.00;;;;4994089;27;88069;-66
2023/06/24 07:52:17;;;;;;;8.18;4.22;;;21.60;99.90;22.00;101374.00;;;;4988987;27;97459;-65
2023/06/24 07:54:43;;;;;;;9.32;5.25;;;21.80;99.90;22.00;101378.00;;;;4982267;27;88836;-66
2023/06/24 07:57:09;;;;;;;6.05;5.07;;;21.80;99.90;22.00;101384.00;;;;4986767;27;116352;-66
2023/06/24 07:59:34;;;;;;;6.55;3.63;;;21.80;99.90;22.00;101376.00;;;;4988369;27;117501;-65
2023/06/24 08:02:00;;;;;;;7.68;4.75;;;21.90;99.90;21.90;101377.00;;;;4987150;27;109255;-66
2023/06/24 08:04:26;;;;;;;11.10;4.80;;;21.80;99.90;21.80;101382.00;;;;4989621;27;107849;-65
2023/06/24 08:06:52;;;;;;;5.43;4.55;;;21.70;99.90;21.70;101384.00;;;;4990616;27;104446;-69
2023/06/24 08:09:17;;;;;;;7.90;5.35;;;21.60;99.90;21.50;101379.00;;;;4986892;27;117904;-64
2023/06/24 08:11:43;;;;;;;5.20;4.03;;;21.40;99.90;21.40;101377.00;;;;4975908;27;108922;-67
2023/06/24 08:14:09;;;;;;;4.85;3.75;;;21.30;99.90;21.40;101393.00;;;;4986819;27;109292;-66
2023/06/24 08:16:35;;;;;;;4.63;4.22;;;21.20;99.90;21.50;101397.00;;;;4989809;27;118157;-65
2023/06/24 08:19:00;;;;;;;9.32;4.55;;;21.20;99.90;21.40;101383.00;;;;4985935;27;115618;-65
2023/06/24 08:21:26;;;;;;;8.10;3.78;;;21.30;99.90;21.30;101389.00;;;;4987739;27;108956;-65
2023/06/24 08:23:52;;;;;;;6.45;4.40;;;21.20;99.90;21.20;101390.00;;;;4988981;27;88070;-64
2023/06/24 08:26:19;;;;;;;5.53;4.10;;;21.10;99.90;21.20;101390.00;;;;4992443;27;88676;-64
2023/06/24 08:28:47;;;;;;;11.50;5.30;;;21.10;99.90;21.20;101389.00;;;;4988312;27;91881;-65
2023/06/24 08:31:13;;;;;;;4.90;4.50;;;21.00;99.90;21.10;101395.00;;;;4987393;28;88102;-65
2023/06/24 08:33:54;;;;;;;6.53;4.40;;;21.00;99.90;21.00;101399.00;;;;5023759;27;88373;-66
2023/06/24 08:36:23;;;;;;;8.65;4.20;;;20.90;99.90;21.00;101399.00;;;;5003195;27;87692;-67
2023/06/24 08:38:49;;;;;;;7.35;4.10;;;20.80;99.90;20.90;101401.00;;;;4999129;28;87809;-66
2023/06/24 08:41:15;;;;;;;10.73;4.15;;;20.80;99.90;20.90;101407.00;;;;4988430;27;87875;-66
2023/06/24 08:43:42;;;;;;;5.57;3.75;;;20.70;99.90;20.90;101407.00;;;;4985387;27;108993;-66
2023/06/24 08:46:08;;;;;;;5.22;3.97;;;20.80;99.90;21.00;101408.00;;;;4984132;27;89150;-66
2023/06/24 08:48:39;;;;;;;5.80;4.20;;;20.80;99.90;21.00;101412.00;;;;4987597;27;118376;-67
2023/06/24 08:51:09;;;;;;;8.30;4.35;;;20.80;99.90;20.90;101415.00;;;;4986987;27;87882;-66
2023/06/24 08:53:37;;;;;;;8.27;4.07;;;20.70;99.90;20.80;101422.00;;;;4973727;28;87886;-67
2023/06/24 08:56:04;;;;;;;5.10;4.43;;;20.60;99.90;20.70;101417.00;;;;4989648;27;88352;-66
2023/06/24 08:58:30;;;;;;;5.75;4.35;;;20.60;99.90;20.60;101422.00;;;;4986360;27;111567;-66
2023/06/24 09:00:56;;;;;;;6.20;4.88;;;20.50;99.90;20.50;101422.00;;;;4990824;27;87201;-67
2023/06/24 09:03:22;;;;;;;7.38;4.80;;;20.40;99.90;20.50;101416.00;;;;4987205;28;102205;-66
2023/06/24 09:05:48;;;;;;;7.53;4.63;;;20.30;99.90;20.40;101413.00;;;;4988448;27;103103;-67
2023/06/24 09:08:21;;;;;;;5.63;3.97;;;20.30;99.90;20.40;101407.00;;;;4988862;27;89193;-66
2023/06/24 09:10:55;;;;;;;6.00;4.38;;;20.30;99.90;20.50;101404.00;;;;4990955;27;87932;-67
2023/06/24 09:13:22;;;;;;;4.60;3.35;;;20.30;99.90;20.50;101408.00;;;;4986675;27;88080;-66
2023/06/24 09:15:48;;;;;;;3.45;3.05;;;20.30;99.90;20.60;101404.00;;;;4989072;27;88989;-65
2023/06/24 09:18:17;;;;;;;6.63;3.00;;;20.40;99.90;20.70;101404.00;;;;4957519;27;115712;-67
2023/06/24 09:20:45;;;;;;;5.65;4.07;;;20.50;99.90;21.00;101399.00;;;;4980894;27;87644;-67
2023/06/24 09:23:11;;;;;;;8.45;3.13;;;20.70;99.90;21.30;101403.00;;;;4993237;27;87784;-67
2023/06/24 09:25:36;;;;;;;4.07;3.38;;;21.00;99.90;21.60;101402.00;;;;4992582;27;117193;-66
2023/06/24 09:28:03;;;;;;;7.60;4.03;;;21.20;99.90;21.80;101406.00;;;;4974035;27;88364;-64
2023/06/24 09:30:29;;;;;;;3.88;2.58;;;21.50;99.90;22.10;101413.00;;;;4984719;28;87690;-65
2023/06/24 09:32:56;;;;;;;7.32;2.72;;;21.70;99.90;22.30;101411.00;;;;4987683;27;88987;-65
2023/06/24 09:35:24;;;;;;;3.45;3.15;;;22.00;99.90;22.60;101413.00;;;;4980621;27;118125;-65
2023/06/24 09:37:55;;;;;;;3.60;2.92;;;22.20;99.90;22.80;101408.00;;;;4988698;27;107317;-64
2023/06/24 09:40:22;;;;;;;5.30;3.40;;;22.50;99.90;23.10;101415.00;;;;4992403;27;87795;-64
2023/06/24 09:43:00;;;;;;;4.03;2.15;;;22.70;99.90;23.40;101415.00;;;;4993605;27;87687;-65
2023/06/24 09:45:28;;;;;;;3.78;2.20;;;23.00;99.90;23.60;101420.00;;;;4985580;28;89135;-65
2023/06/24 09:47:55;;;;;;;4.95;2.75;;;23.30;99.90;23.90;101422.00;;;;4982815;27;87858;-64
2023/06/24 09:50:21;;;;;;;3.67;3.20;;;23.60;99.90;24.30;101412.00;;;;4987896;27;87819;-64
2023/06/24 09:52:49;;;;;;;3.58;2.55;;;23.90;99.90;24.60;101423.00;;;;4990567;27;109122;-65
2023/06/24 09:55:17;;;;;;;4.25;3.35;;;24.20;99.90;24.80;101420.00;;;;4976649;28;87741;-65
2023/06/24 09:57:49;;;;;;;3.63;2.92;;;25.00;98.70;24.90;101413.00;;;;4973778;27;88997;-64
2023/06/24 10:00:19;;;;;;;3.03;2.45;;;24.60;98.00;25.10;101410.00;;;;4990469;27;102131;-64
2023/06/24 10:02:46;;;;;;;2.80;2.60;;;24.90;97.80;25.30;101409.00;;;;4991847;27;87820;-65
2023/06/24 10:05:13;;;;;;;5.05;3.03;;;24.90;96.00;25.50;101405.00;;;;4972290;28;88981;-64
2023/06/24 10:07:40;;;;;;;3.08;2.17;;;25.00;95.50;25.60;101407.00;;;;4992237;27;88551;-65
2023/06/24 10:10:07;;;;;;;4.75;3.17;;;25.20;95.00;25.80;101411.00;;;;4994075;27;87511;-64
2023/06/24 10:12:35;;;;;;;2.72;2.15;;;25.40;93.40;25.70;101413.00;;;;4993106;27;88009;-64
2023/06/24 10:15:01;;;;;;;6.22;3.25;;;25.40;92.40;25.70;101412.00;;;;4983212;27;87585;-65
2023/06/24 10:17:27;;;;;;;4.35;2.60;;;25.40;91.90;25.70;101401.00;;;;4981357;27;88559;-64
2023/06/24 10:19:56;;;;;;;3.70;2.05;;;25.40;91.60;25.80;101408.00;;;;4989242;27;111729;-64
2023/06/24 10:22:26;;;;;;;3.25;2.58;;;25.40;91.70;25.90;101414.00;;;;4970828;27;89410;-64
2023/06/24 10:24:53;;;;;;;3.03;1.55;;;25.60;91.70;25.90;101406.00;;;;4981440;27;88238;-64
2023/06/24 10:27:21;;;;;;;3.90;2.85;;;25.60;91.50;26.00;101407.00;;;;4979284;27;88451;-64
2023/06/24 10:29:52;;;;;;;4.90;1.67;;;25.60;90.70;26.20;101415.00;;;;4989425;27;87950;-63
2023/06/24 10:32:24;;;;;;;2.95;1.85;;;25.70;89.70;26.40;101403.00;;;;4995575;27;89004;-64
2023/06/24 10:34:57;;;;;;;3.13;2.30;;;25.80;87.90;26.70;101402.00;;;;4974125;28;89397;-65
2023/06/24 10:37:25;;;;;;;2.10;1.70;;;26.20;85.90;26.90;101393.00;;;;4951524;28;116488;-65
2023/06/24 10:39:53;;;;;;;5.90;2.05;;;26.40;84.40;26.90;101402.00;;;;4989354;27;86951;-65
2023/06/24 10:42:29;;;;;;;2.88;2.08;;;26.50;82.60;26.80;101403.00;;;;4984750;27;87975;-65
2023/06/24 10:44:59;;;;;;;5.15;2.05;;;26.40;79.90;26.70;101396.00;;;;4974302;28;89692;-64